createdAt,value
2023-02-18T00:03:27.257Z,10.68
2023-02-18T00:08:28.500Z,10.69
2023-02-18T00:13:29.664Z,10.66
2023-02-18T00:18:30.803Z,10.64
2023-02-18T00:23:32.038Z,10.62
2023-02-18T00:28:33.252Z,10.58
2023-02-18T00:33:34.394Z,10.57
2023-02-18T00:38:35.619Z,10.56
2023-02-18T00:43:36.821Z,10.54
2023-02-18T00:48:38.056Z,10.56
2023-02-18T00:53:39.249Z,10.57
2023-02-18T00:58:40.420Z,10.57
2023-02-18T01:03:41.660Z,10.59
2023-02-18T01:08:42.857Z,10.59
2023-02-18T01:13:44.066Z,10.57
2023-02-18T01:18:45.256Z,10.58
2023-02-18T01:23:46.514Z,10.60
2023-02-18T01:28:48.182Z,10.60
2023-02-18T01:33:49.386Z,10.60
2023-02-18T01:38:50.571Z,10.60
2023-02-18T01:43:51.744Z,10.63
2023-02-18T01:48:53.081Z,10.65
2023-02-18T01:53:54.324Z,10.64
2023-02-18T01:58:55.554Z,10.65
2023-02-18T02:03:56.741Z,10.62
2023-02-18T02:08:58.248Z,10.60
2023-02-18T02:13:59.426Z,10.59
2023-02-18T02:19:00.631Z,10.57
2023-02-18T02:24:01.770Z,10.56
2023-02-18T02:29:04.610Z,10.55
2023-02-18T02:34:05.846Z,10.56
2023-02-18T02:39:07.021Z,10.54
2023-02-18T02:44:08.157Z,10.49
2023-02-18T02:49:09.318Z,10.45
2023-02-18T02:54:10.663Z,10.44
2023-02-18T02:59:11.856Z,10.43
2023-02-18T03:04:13.464Z,10.43
2023-02-18T03:09:15.152Z,10.43
2023-02-18T03:14:16.328Z,10.44
2023-02-18T03:19:17.475Z,10.44
2023-02-18T03:24:18.629Z,10.45
2023-02-18T03:29:19.791Z,10.44
2023-02-18T03:34:21.030Z,10.44
2023-02-18T03:39:22.220Z,10.39
2023-02-18T03:44:23.434Z,10.35
2023-02-18T03:49:24.588Z,10.28
2023-02-18T03:54:25.733Z,10.22
2023-02-18T03:59:26.965Z,10.17
2023-02-18T04:04:28.115Z,10.09
2023-02-18T04:09:29.341Z,10.08
2023-02-18T04:14:30.545Z,10.05
2023-02-18T04:19:31.682Z,10.01
2023-02-18T04:24:32.904Z,9.98
2023-02-18T04:29:34.124Z,9.95
2023-02-18T04:34:35.373Z,9.94
2023-02-18T04:39:36.546Z,9.90
2023-02-18T04:44:37.760Z,9.89
2023-02-18T04:49:38.938Z,9.87
2023-02-18T04:54:40.152Z,9.83
2023-02-18T04:59:41.305Z,9.81
2023-02-18T05:04:42.499Z,9.79
2023-02-18T05:09:43.709Z,9.76
2023-02-18T05:14:44.956Z,9.74
2023-02-18T05:19:46.240Z,9.71
2023-02-18T05:24:47.394Z,9.71
2023-02-18T05:29:48.569Z,9.69
2023-02-18T05:34:49.819Z,9.68
2023-02-18T05:39:50.994Z,9.67
2023-02-18T05:44:52.181Z,9.66
2023-02-18T05:49:53.383Z,9.65
2023-02-18T05:54:54.578Z,9.64
2023-02-18T05:59:55.901Z,9.62
2023-02-18T06:04:57.057Z,9.61
2023-02-18T06:09:58.246Z,9.61
2023-02-18T06:14:59.502Z,9.59
2023-02-18T06:20:00.712Z,9.59
2023-02-18T06:25:01.928Z,9.57
2023-02-18T06:30:03.116Z,9.56
2023-02-18T06:35:04.315Z,9.55
2023-02-18T06:40:05.489Z,9.55
2023-02-18T06:45:06.799Z,9.54
2023-02-18T06:50:07.993Z,9.53
2023-02-18T06:55:12.314Z,9.54
2023-02-18T07:00:13.484Z,9.55
2023-02-18T07:05:14.654Z,9.56
2023-02-18T07:10:15.874Z,9.60
2023-02-18T07:15:17.065Z,9.68
2023-02-18T07:20:18.306Z,9.71
2023-02-18T07:25:20.554Z,9.72
2023-02-18T07:30:23.287Z,9.79
2023-02-18T07:35:24.476Z,9.86
2023-02-18T07:40:25.833Z,9.94
2023-02-18T07:45:27.123Z,10.00
2023-02-18T07:50:28.432Z,10.05
2023-02-18T07:55:49.055Z,10.03
2023-02-18T08:00:50.359Z,10.02
2023-02-18T08:05:51.566Z,10.01
2023-02-18T08:10:52.749Z,10.04
2023-02-18T08:15:53.913Z,10.04
2023-02-18T08:20:55.646Z,9.99
2023-02-18T08:25:56.790Z,9.96
2023-02-18T08:30:57.972Z,9.88
2023-02-18T08:35:59.175Z,9.79
2023-02-18T08:41:00.387Z,9.70
2023-02-18T08:46:01.622Z,9.68
2023-02-18T08:51:02.881Z,9.69
2023-02-18T08:56:04.068Z,9.57
2023-02-18T09:01:05.334Z,9.52
2023-02-18T09:06:06.593Z,9.54
2023-02-18T09:11:08.206Z,9.63
2023-02-18T09:16:09.716Z,9.71
2023-02-18T09:21:11.183Z,9.69
2023-02-18T09:26:12.419Z,9.66
2023-02-18T09:31:14.038Z,9.65
2023-02-18T09:36:15.580Z,9.72
2023-02-18T09:41:16.750Z,9.74
2023-02-18T09:46:17.947Z,9.73
2023-02-18T09:51:19.109Z,9.76
2023-02-18T09:56:20.301Z,9.78
2023-02-18T10:01:21.489Z,9.76
2023-02-18T10:06:22.871Z,9.78
2023-02-18T10:11:24.086Z,9.81
2023-02-18T10:16:25.355Z,9.82
2023-02-18T10:21:26.549Z,9.88
2023-02-18T10:26:27.845Z,9.82
2023-02-18T10:31:29.264Z,9.75
2023-02-18T10:36:30.580Z,9.71
2023-02-18T10:41:31.734Z,9.73
2023-02-18T10:46:33.019Z,9.81
2023-02-18T10:51:34.341Z,9.88
2023-02-18T10:56:35.635Z,9.84
2023-02-18T11:01:36.895Z,9.60
2023-02-18T11:06:38.061Z,9.46
2023-02-18T11:11:39.431Z,9.38
2023-02-18T11:16:40.675Z,9.37
2023-02-18T11:21:42.251Z,9.39
2023-02-18T11:26:44.717Z,9.44
2023-02-18T11:31:45.960Z,9.42
2023-02-18T11:36:47.166Z,9.38
2023-02-18T11:41:48.354Z,9.33
2023-02-18T11:46:49.540Z,9.28
2023-02-18T11:51:50.772Z,9.30
2023-02-18T11:56:53.844Z,9.28
2023-02-18T12:01:55.153Z,9.29
2023-02-18T12:06:56.461Z,9.31
2023-02-18T12:11:59.846Z,9.34
2023-02-18T12:17:01.310Z,9.34
2023-02-18T12:22:02.777Z,9.31
2023-02-18T12:27:03.940Z,9.29
2023-02-18T12:32:05.219Z,9.31
2023-02-18T12:37:06.534Z,9.35
2023-02-18T12:42:07.722Z,9.33
2023-02-18T12:47:09.252Z,9.30
2023-02-18T12:52:10.381Z,9.35
2023-02-18T12:57:11.859Z,9.36
2023-02-18T13:02:13.043Z,9.32
2023-02-18T13:07:14.297Z,9.32
2023-02-18T13:12:15.466Z,9.35
2023-02-18T13:17:16.707Z,9.35
2023-02-18T13:22:17.881Z,9.37
2023-02-18T13:27:19.095Z,9.39
2023-02-18T13:32:20.250Z,9.41
2023-02-18T13:37:21.737Z,9.41
2023-02-18T13:42:23.097Z,9.43
2023-02-18T13:47:24.271Z,9.43
2023-02-18T13:52:25.542Z,9.44
2023-02-18T13:57:26.702Z,9.43
2023-02-18T14:02:28.251Z,9.45
2023-02-18T14:07:29.470Z,9.46
2023-02-18T14:12:30.610Z,9.47
2023-02-18T14:17:31.824Z,9.47
2023-02-18T14:22:33.054Z,9.49
2023-02-18T14:27:34.276Z,9.49
2023-02-18T14:32:35.459Z,9.50
2023-02-18T14:37:36.634Z,9.53
2023-02-18T14:42:37.861Z,9.53
2023-02-18T14:47:39.044Z,9.56
2023-02-18T14:52:40.164Z,9.56
2023-02-18T14:57:41.430Z,9.55
2023-02-18T15:02:42.577Z,9.55
2023-02-18T15:07:43.777Z,9.57
2023-02-18T15:12:44.972Z,9.56
2023-02-18T15:17:46.158Z,9.58
2023-02-18T15:22:47.968Z,9.60
2023-02-18T15:27:49.355Z,9.59
2023-02-18T15:32:50.802Z,9.58
2023-02-18T15:37:52.064Z,9.58
2023-02-18T15:42:53.262Z,9.59
2023-02-18T15:47:54.456Z,9.60
2023-02-18T15:52:55.625Z,9.61
2023-02-18T15:57:56.834Z,9.64
2023-02-18T16:02:58.072Z,9.64
2023-02-18T16:07:59.290Z,9.66
2023-02-18T16:13:00.542Z,9.66
2023-02-18T16:18:01.676Z,9.70
2023-02-18T16:23:03.293Z,9.73
2023-02-18T16:28:04.532Z,9.73
2023-02-18T16:33:05.765Z,9.75
2023-02-18T16:38:06.932Z,9.76
2023-02-18T16:43:08.168Z,9.75
2023-02-18T16:48:09.331Z,9.76
2023-02-18T16:53:10.550Z,9.78
2023-02-18T16:58:11.743Z,9.79
2023-02-18T17:03:12.997Z,9.82
2023-02-18T17:08:14.385Z,9.84
2023-02-18T17:13:15.602Z,9.85
2023-02-18T17:18:16.733Z,9.86
2023-02-18T17:23:17.926Z,9.88
2023-02-18T17:28:19.315Z,9.89
2023-02-18T17:33:20.584Z,9.84
2023-02-18T17:38:21.852Z,9.81
2023-02-18T17:43:25.257Z,9.76
2023-02-18T17:48:28.320Z,9.74
2023-02-18T17:53:29.553Z,9.73
2023-02-18T17:58:30.763Z,9.73
2023-02-18T18:03:31.970Z,9.72
2023-02-18T18:08:33.174Z,9.72
2023-02-18T18:13:34.353Z,9.67
2023-02-18T18:18:36.859Z,9.67
2023-02-18T18:23:38.019Z,9.64
2023-02-18T18:28:39.154Z,9.63
2023-02-18T18:33:40.285Z,9.61
2023-02-18T18:38:41.458Z,9.62
2023-02-18T18:43:42.630Z,9.61
2023-02-18T18:48:43.773Z,9.60
2023-02-18T18:53:45.046Z,9.60
2023-02-18T18:58:46.213Z,9.60
2023-02-18T19:03:48.356Z,9.59
2023-02-18T19:08:49.564Z,9.57
2023-02-18T19:13:50.745Z,9.58
2023-02-18T19:18:52.138Z,9.57
2023-02-18T19:23:53.316Z,9.58
2023-02-18T19:28:54.546Z,9.59
2023-02-18T19:33:55.756Z,9.60
2023-02-18T19:38:56.964Z,9.62
2023-02-18T19:43:58.213Z,9.64
2023-02-18T19:48:59.394Z,9.66
2023-02-18T19:54:00.610Z,9.68
2023-02-18T19:59:01.820Z,9.70
2023-02-18T20:04:03.037Z,9.70
2023-02-18T20:09:04.201Z,9.70
2023-02-18T20:14:05.409Z,9.75
2023-02-18T20:19:06.545Z,9.79
2023-02-18T20:24:07.782Z,9.80
2023-02-18T20:29:08.963Z,9.81
2023-02-18T20:34:10.704Z,9.80
2023-02-18T20:39:16.276Z,9.82
2023-02-18T20:44:17.712Z,9.83
2023-02-18T20:49:18.979Z,9.83
2023-02-18T20:54:20.152Z,9.84
2023-02-18T20:59:21.393Z,9.84
2023-02-18T21:04:22.594Z,9.85
2023-02-18T21:09:24.230Z,9.85
2023-02-18T21:14:25.428Z,9.83
2023-02-18T21:19:26.666Z,9.84
2023-02-18T21:24:28.152Z,9.86
2023-02-18T21:29:29.558Z,9.90
2023-02-18T21:34:30.843Z,9.89
2023-02-18T21:39:32.067Z,9.89
2023-02-18T21:44:41.970Z,9.92
2023-02-18T21:49:43.655Z,9.96
2023-02-18T21:54:44.925Z,9.98
2023-02-18T21:59:46.208Z,9.96
2023-02-18T22:04:47.368Z,9.89
2023-02-18T22:09:49.166Z,9.82
2023-02-18T22:14:50.329Z,9.78
2023-02-18T22:19:51.493Z,9.76
2023-02-18T22:24:52.791Z,9.74
2023-02-18T22:29:53.984Z,9.73
2023-02-18T22:34:55.191Z,9.73
2023-02-18T22:39:56.365Z,9.73
2023-02-18T22:44:57.568Z,9.70
2023-02-18T22:49:58.697Z,9.68
2023-02-18T22:55:00.732Z,9.68
2023-02-18T23:00:01.862Z,9.67
2023-02-18T23:05:03.025Z,9.68
2023-02-18T23:10:04.172Z,9.66
2023-02-18T23:15:05.440Z,9.65
2023-02-18T23:20:06.630Z,9.62
2023-02-18T23:25:07.825Z,9.61
2023-02-18T23:30:09.163Z,9.61
2023-02-18T23:35:10.405Z,9.63
2023-02-18T23:40:13.684Z,9.69
2023-02-18T23:45:14.909Z,9.70
2023-02-18T23:50:16.264Z,9.71
2023-02-18T23:55:17.479Z,9.70
